sensor_id;sensor_type;location;lat;lon;timestamp;pressure;altitude;pressure_sealevel;temperature;humidity
64853;BME280;56050;55.558;-4.644;2023-02-16T00:01:22;101497.09;;;10.72;66.11
64853;BME280;56050;55.558;-4.644;2023-02-16T00:03:49;101495.19;;;10.72;66.27
64853;BME280;56050;55.558;-4.644;2023-02-16T00:06:15;101493.66;;;10.71;66.46
64853;BME280;56050;55.558;-4.644;2023-02-16T00:08:46;101497.88;;;10.69;66.40
64853;BME280;56050;55.558;-4.644;2023-02-16T00:11:15;101494.75;;;10.67;66.49
64853;BME280;56050;55.558;-4.644;2023-02-16T00:14:01;101498.59;;;10.66;66.39
64853;BME280;56050;55.558;-4.644;2023-02-16T00:16:26;101490.50;;;10.66;66.53
64853;BME280;56050;55.558;-4.644;2023-02-16T00:18:52;101493.56;;;10.64;66.54
64853;BME280;56050;55.558;-4.644;2023-02-16T00:21:18;101497.41;;;10.63;66.56
64853;BME280;56050;55.558;-4.644;2023-02-16T00:23:44;101502.03;;;10.63;66.39
64853;BME280;56050;55.558;-4.644;2023-02-16T00:26:14;101495.84;;;10.62;66.60
64853;BME280;56050;55.558;-4.644;2023-02-16T00:28:41;101495.47;;;10.63;66.65
64853;BME280;56050;55.558;-4.644;2023-02-16T00:31:15;101501.63;;;10.64;66.41
64853;BME280;56050;55.558;-4.644;2023-02-16T00:33:41;101500.84;;;10.63;66.40
64853;BME280;56050;55.558;-4.644;2023-02-16T00:36:07;101493.16;;;10.62;66.63
64853;BME280;56050;55.558;-4.644;2023-02-16T00:38:33;101496.63;;;10.63;66.58
64853;BME280;56050;55.558;-4.644;2023-02-16T00:40:58;101490.81;;;10.60;66.62
64853;BME280;56050;55.558;-4.644;2023-02-16T00:43:27;101484.25;;;10.58;66.52
64853;BME280;56050;55.558;-4.644;2023-02-16T00:45:54;101477.31;;;10.57;66.52
64853;BME280;56050;55.558;-4.644;2023-02-16T00:48:21;101468.06;;;10.54;66.55
64853;BME280;56050;55.558;-4.644;2023-02-16T00:50:47;101468.00;;;10.51;66.58
64853;BME280;56050;55.558;-4.644;2023-02-16T00:53:13;101459.16;;;10.50;66.68
64853;BME280;56050;55.558;-4.644;2023-02-16T00:55:40;101452.56;;;10.48;66.55
64853;BME280;56050;55.558;-4.644;2023-02-16T00:58:27;101458.69;;;10.45;66.54
64853;BME280;56050;55.558;-4.644;2023-02-16T01:01:07;101460.25;;;10.46;66.65
64853;BME280;56050;55.558;-4.644;2023-02-16T01:03:33;101466.44;;;10.46;66.30
64853;BME280;56050;55.558;-4.644;2023-02-16T01:05:59;101461.38;;;10.45;66.52
64853;BME280;56050;55.558;-4.644;2023-02-16T01:08:43;101464.84;;;10.45;66.34
64853;BME280;56050;55.558;-4.644;2023-02-16T01:11:27;101455.66;;;10.46;66.46
64853;BME280;56050;55.558;-4.644;2023-02-16T01:13:54;101453.69;;;10.47;66.32
64853;BME280;56050;55.558;-4.644;2023-02-16T01:16:22;101452.19;;;10.49;66.25
64853;BME280;56050;55.558;-4.644;2023-02-16T01:18:49;101442.25;;;10.53;66.21
64853;BME280;56050;55.558;-4.644;2023-02-16T01:21:15;101435.72;;;10.54;66.07
64853;BME280;56050;55.558;-4.644;2023-02-16T01:23:41;101434.56;;;10.55;66.21
64853;BME280;56050;55.558;-4.644;2023-02-16T01:26:13;101425.34;;;10.56;65.98
64853;BME280;56050;55.558;-4.644;2023-02-16T01:28:39;101421.53;;;10.57;65.92
64853;BME280;56050;55.558;-4.644;2023-02-16T01:31:04;101423.84;;;10.59;66.02
64853;BME280;56050;55.558;-4.644;2023-02-16T01:33:30;101423.06;;;10.58;65.93
64853;BME280;56050;55.558;-4.644;2023-02-16T01:35:56;101423.84;;;10.59;65.96
64853;BME280;56050;55.558;-4.644;2023-02-16T01:38:25;101417.66;;;10.58;66.06
64853;BME280;56050;55.558;-4.644;2023-02-16T01:43:49;101428.81;;;10.57;65.95
64853;BME280;56050;55.558;-4.644;2023-02-16T01:48:53;101426.13;;;10.57;65.99
64853;BME280;56050;55.558;-4.644;2023-02-16T01:54:05;101413.78;;;10.56;65.92
64853;BME280;56050;55.558;-4.644;2023-02-16T01:56:39;101404.16;;;10.55;65.87
64853;BME280;56050;55.558;-4.644;2023-02-16T01:59:31;101396.06;;;10.51;66.00
64853;BME280;56050;55.558;-4.644;2023-02-16T02:02:10;101390.63;;;10.48;65.95
64853;BME280;56050;55.558;-4.644;2023-02-16T02:04:53;101390.56;;;10.44;66.12
64853;BME280;56050;55.558;-4.644;2023-02-16T02:08:01;101380.91;;;10.40;66.08
64853;BME280;56050;55.558;-4.644;2023-02-16T02:15:37;101360.34;;;10.25;66.44
64853;BME280;56050;55.558;-4.644;2023-02-16T02:18:02;101356.06;;;10.20;66.60
64853;BME280;56050;55.558;-4.644;2023-02-16T02:20:44;101352.94;;;10.15;66.52
64853;BME280;56050;55.558;-4.644;2023-02-16T02:24:06;101353.22;;;10.10;66.59
64853;BME280;56050;55.558;-4.644;2023-02-16T02:26:48;101348.97;;;10.05;66.72
64853;BME280;56050;55.558;-4.644;2023-02-16T02:33:00;101338.13;;;10.01;66.63
64853;BME280;56050;55.558;-4.644;2023-02-16T02:38:29;101339.31;;;10.04;66.46
64853;BME280;56050;55.558;-4.644;2023-02-16T02:41:22;101341.63;;;10.05;66.46
64853;BME280;56050;55.558;-4.644;2023-02-16T02:44:13;101353.56;;;10.08;66.27
64853;BME280;56050;55.558;-4.644;2023-02-16T02:46:41;101355.13;;;10.09;66.28
64853;BME280;56050;55.558;-4.644;2023-02-16T02:49:07;101349.41;;;10.11;66.15
64853;BME280;56050;55.558;-4.644;2023-02-16T02:51:32;101336.69;;;10.11;66.20
64853;BME280;56050;55.558;-4.644;2023-02-16T02:57:30;101324.88;;;10.16;66.16
64853;BME280;56050;55.558;-4.644;2023-02-16T03:05:50;101328.06;;;10.28;65.67
64853;BME280;56050;55.558;-4.644;2023-02-16T03:08:19;101330.06;;;10.35;65.85
64853;BME280;56050;55.558;-4.644;2023-02-16T03:11:07;101320.53;;;10.41;65.74
64853;BME280;56050;55.558;-4.644;2023-02-16T03:14:01;101314.03;;;10.45;65.64
64853;BME280;56050;55.558;-4.644;2023-02-16T03:16:43;101299.00;;;10.44;65.58
64853;BME280;56050;55.558;-4.644;2023-02-16T03:19:12;101299.00;;;10.44;65.54
64853;BME280;56050;55.558;-4.644;2023-02-16T03:21:58;101290.91;;;10.44;65.71
64853;BME280;56050;55.558;-4.644;2023-02-16T03:24:42;101295.13;;;10.42;65.65
64853;BME280;56050;55.558;-4.644;2023-02-16T03:27:32;101282.78;;;10.37;65.90
64853;BME280;56050;55.558;-4.644;2023-02-16T03:30:18;101274.25;;;10.32;65.97
64853;BME280;56050;55.558;-4.644;2023-02-16T03:32:46;101280.00;;;10.30;65.95
64853;BME280;56050;55.558;-4.644;2023-02-16T03:35:12;101272.69;;;10.27;66.16
64853;BME280;56050;55.558;-4.644;2023-02-16T03:37:39;101270.34;;;10.26;66.08
64853;BME280;56050;55.558;-4.644;2023-02-16T03:40:07;101268.78;;;10.25;66.19
64853;BME280;56050;55.558;-4.644;2023-02-16T03:42:52;101264.91;;;10.22;66.18
64853;BME280;56050;55.558;-4.644;2023-02-16T03:45:19;101263.78;;;10.23;66.17
64853;BME280;56050;55.558;-4.644;2023-02-16T03:47:45;101257.63;;;10.23;66.28
64853;BME280;56050;55.558;-4.644;2023-02-16T03:50:10;101259.53;;;10.22;66.18
64853;BME280;56050;55.558;-4.644;2023-02-16T03:52:36;101257.63;;;10.23;66.25
64853;BME280;56050;55.558;-4.644;2023-02-16T03:55:01;101254.16;;;10.22;66.32
64853;BME280;56050;55.558;-4.644;2023-02-16T03:57:27;101253.03;;;10.23;66.17
64853;BME280;56050;55.558;-4.644;2023-02-16T03:59:52;101253.41;;;10.25;66.18
64853;BME280;56050;55.558;-4.644;2023-02-16T04:02:18;101256.94;;;10.29;66.05
64853;BME280;56050;55.558;-4.644;2023-02-16T04:04:44;101245.41;;;10.32;66.10
64853;BME280;56050;55.558;-4.644;2023-02-16T04:07:10;101250.41;;;10.34;66.06
64853;BME280;56050;55.558;-4.644;2023-02-16T04:09:35;101246.59;;;10.35;66.08
64853;BME280;56050;55.558;-4.644;2023-02-16T04:12:01;101254.28;;;10.36;65.81
64853;BME280;56050;55.558;-4.644;2023-02-16T04:14:45;101246.22;;;10.36;65.98
64853;BME280;56050;55.558;-4.644;2023-02-16T04:17:10;101248.91;;;10.36;65.97
64853;BME280;56050;55.558;-4.644;2023-02-16T04:19:35;101252.00;;;10.38;65.98
64853;BME280;56050;55.558;-4.644;2023-02-16T04:22:01;101238.16;;;10.40;65.83
64853;BME280;56050;55.558;-4.644;2023-02-16T04:24:26;101234.34;;;10.41;65.84
64853;BME280;56050;55.558;-4.644;2023-02-16T04:26:52;101229.31;;;10.39;65.82
64853;BME280;56050;55.558;-4.644;2023-02-16T04:29:17;101223.53;;;10.37;65.87
64853;BME280;56050;55.558;-4.644;2023-02-16T04:31:43;101228.53;;;10.35;65.91
64853;BME280;56050;55.558;-4.644;2023-02-16T04:34:08;101226.19;;;10.34;65.99
64853;BME280;56050;55.558;-4.644;2023-02-16T04:36:34;101224.22;;;10.31;66.19
64853;BME280;56050;55.558;-4.644;2023-02-16T04:38:59;101238.06;;;10.29;66.18
64853;BME280;56050;55.558;-4.644;2023-02-16T04:41:25;101230.00;;;10.29;66.30
64853;BME280;56050;55.558;-4.644;2023-02-16T04:43:51;101243.09;;;10.31;66.27
64853;BME280;56050;55.558;-4.644;2023-02-16T04:46:16;101230.41;;;10.31;66.26
64853;BME280;56050;55.558;-4.644;2023-02-16T04:48:43;101238.13;;;10.33;66.34
64853;BME280;56050;55.558;-4.644;2023-02-16T04:51:09;101247.72;;;10.34;66.21
64853;BME280;56050;55.558;-4.644;2023-02-16T04:53:34;101249.28;;;10.35;66.29
64853;BME280;56050;55.558;-4.644;2023-02-16T04:56:00;101257.75;;;10.37;66.23
64853;BME280;56050;55.558;-4.644;2023-02-16T04:58:26;101252.38;;;10.37;66.39
64853;BME280;56050;55.558;-4.644;2023-02-16T05:00:51;101258.16;;;10.39;66.17
64853;BME280;56050;55.558;-4.644;2023-02-16T05:03:16;101263.19;;;10.40;66.22
64853;BME280;56050;55.558;-4.644;2023-02-16T05:05:42;101258.19;;;10.42;66.18
64853;BME280;56050;55.558;-4.644;2023-02-16T05:08:07;101250.13;;;10.42;66.09
64853;BME280;56050;55.558;-4.644;2023-02-16T05:10:33;101253.94;;;10.41;66.19
64853;BME280;56050;55.558;-4.644;2023-02-16T05:12:58;101255.09;;;10.40;66.17
64853;BME280;56050;55.558;-4.644;2023-02-16T05:15:42;101259.31;;;10.41;66.14
64853;BME280;56050;55.558;-4.644;2023-02-16T05:18:09;101256.63;;;10.41;66.12
64853;BME280;56050;55.558;-4.644;2023-02-16T05:20:34;101255.09;;;10.40;66.13
64853;BME280;56050;55.558;-4.644;2023-02-16T05:23:18;101267.78;;;10.40;66.22
64853;BME280;56050;55.558;-4.644;2023-02-16T05:25:44;101265.47;;;10.38;66.27
64853;BME280;56050;55.558;-4.644;2023-02-16T05:28:09;101256.97;;;10.36;66.10
64853;BME280;56050;55.558;-4.644;2023-02-16T05:30:35;101251.97;;;10.35;66.24
64853;BME280;56050;55.558;-4.644;2023-02-16T05:33:00;101240.03;;;10.32;66.30
64853;BME280;56050;55.558;-4.644;2023-02-16T05:35:26;101250.38;;;10.30;66.40
64853;BME280;56050;55.558;-4.644;2023-02-16T05:37:51;101251.91;;;10.28;66.31
64853;BME280;56050;55.558;-4.644;2023-02-16T05:40:17;101253.41;;;10.25;66.44
64853;BME280;56050;55.558;-4.644;2023-02-16T05:42:42;101251.09;;;10.24;66.34
64853;BME280;56050;55.558;-4.644;2023-02-16T05:45:08;101244.53;;;10.21;66.40
64853;BME280;56050;55.558;-4.644;2023-02-16T05:47:34;101236.81;;;10.20;66.65
64853;BME280;56050;55.558;-4.644;2023-02-16T05:49:59;101240.25;;;10.17;66.69
64853;BME280;56050;55.558;-4.644;2023-02-16T05:52:25;101241.41;;;10.16;66.50
64853;BME280;56050;55.558;-4.644;2023-02-16T05:54:50;101248.72;;;10.15;66.57
64853;BME280;56050;55.558;-4.644;2023-02-16T05:57:16;101237.94;;;10.15;66.47
64853;BME280;56050;55.558;-4.644;2023-02-16T05:59:41;101239.84;;;10.15;66.53
64853;BME280;56050;55.558;-4.644;2023-02-16T06:02:06;101235.59;;;10.14;66.56
64853;BME280;56050;55.558;-4.644;2023-02-16T06:04:34;101231.78;;;10.15;66.65
64853;BME280;56050;55.558;-4.644;2023-02-16T06:06:59;101235.25;;;10.15;66.83
64853;BME280;56050;55.558;-4.644;2023-02-16T06:09:25;101240.63;;;10.15;66.49
64853;BME280;56050;55.558;-4.644;2023-02-16T06:11:50;101231.44;;;10.16;66.55
64853;BME280;56050;55.558;-4.644;2023-02-16T06:14:18;101230.66;;;10.16;66.46
64853;BME280;56050;55.558;-4.644;2023-02-16T06:16:46;101233.69;;;10.14;66.53
64853;BME280;56050;55.558;-4.644;2023-02-16T06:19:13;101244.03;;;10.12;66.69
64853;BME280;56050;55.558;-4.644;2023-02-16T06:21:39;101254.41;;;10.10;66.76
64853;BME280;56050;55.558;-4.644;2023-02-16T06:24:06;101265.53;;;10.09;66.68
64853;BME280;56050;55.558;-4.644;2023-02-16T06:26:32;101256.31;;;10.10;66.60
64853;BME280;56050;55.558;-4.644;2023-02-16T06:28:58;101260.56;;;10.11;66.55
64853;BME280;56050;55.558;-4.644;2023-02-16T06:31:23;101265.94;;;10.11;66.53
64853;BME280;56050;55.558;-4.644;2023-02-16T06:33:50;101281.31;;;10.10;66.59
64853;BME280;56050;55.558;-4.644;2023-02-16T06:36:15;101286.31;;;10.12;66.51
64853;BME280;56050;55.558;-4.644;2023-02-16T06:38:41;101282.94;;;10.15;66.43
64853;BME280;56050;55.558;-4.644;2023-02-16T06:41:07;101273.72;;;10.16;66.50
64853;BME280;56050;55.558;-4.644;2023-02-16T06:43:32;101274.13;;;10.18;66.44
64853;BME280;56050;55.558;-4.644;2023-02-16T06:45:57;101258.75;;;10.18;66.36
64853;BME280;56050;55.558;-4.644;2023-02-16T06:48:23;101252.91;;;10.13;66.45
64853;BME280;56050;55.558;-4.644;2023-02-16T06:50:50;101255.53;;;10.09;66.40
64853;BME280;56050;55.558;-4.644;2023-02-16T06:53:15;101258.19;;;10.05;66.43
64853;BME280;56050;55.558;-4.644;2023-02-16T06:55:41;101257.00;;;10.03;66.50
64853;BME280;56050;55.558;-4.644;2023-02-16T06:58:06;101256.22;;;9.99;66.41
64853;BME280;56050;55.558;-4.644;2023-02-16T07:00:33;101268.06;;;9.94;66.60
64853;BME280;56050;55.558;-4.644;2023-02-16T07:02:58;101263.84;;;9.93;66.51
64853;BME280;56050;55.558;-4.644;2023-02-16T07:05:24;101258.47;;;9.93;66.81
64853;BME280;56050;55.558;-4.644;2023-02-16T07:07:50;101247.25;;;9.91;66.80
64853;BME280;56050;55.558;-4.644;2023-02-16T07:10:15;101265.34;;;9.91;66.79
64853;BME280;56050;55.558;-4.644;2023-02-16T07:12:41;101266.09;;;9.91;66.88
64853;BME280;56050;55.558;-4.644;2023-02-16T07:15:06;101265.34;;;9.91;66.97
64853;BME280;56050;55.558;-4.644;2023-02-16T07:17:32;101263.41;;;9.91;67.01
64853;BME280;56050;55.558;-4.644;2023-02-16T07:19:58;101260.38;;;9.93;67.02
64853;BME280;56050;55.558;-4.644;2023-02-16T07:22:23;101269.22;;;9.93;66.98
64853;BME280;56050;55.558;-4.644;2023-02-16T07:24:49;101262.69;;;9.94;67.07
64853;BME280;56050;55.558;-4.644;2023-02-16T07:27:14;101270.03;;;9.97;67.14
64853;BME280;56050;55.558;-4.644;2023-02-16T07:29:40;101274.28;;;9.98;67.16
64853;BME280;56050;55.558;-4.644;2023-02-16T07:32:05;101270.06;;;10.01;67.02
64853;BME280;56050;55.558;-4.644;2023-02-16T07:34:31;101279.31;;;10.03;67.01
64853;BME280;56050;55.558;-4.644;2023-02-16T07:36:56;101284.38;;;10.09;66.97
64853;BME280;56050;55.558;-4.644;2023-02-16T07:39:22;101288.69;;;10.13;66.87
64853;BME280;56050;55.558;-4.644;2023-02-16T07:41:48;101292.19;;;10.17;66.75
64853;BME280;56050;55.558;-4.644;2023-02-16T07:44:13;101288.75;;;10.20;66.72
64853;BME280;56050;55.558;-4.644;2023-02-16T07:46:39;101305.31;;;10.22;66.58
64853;BME280;56050;55.558;-4.644;2023-02-16T07:49:04;101293.81;;;10.25;66.58
64853;BME280;56050;55.558;-4.644;2023-02-16T07:51:30;101291.94;;;10.29;66.61
64853;BME280;56050;55.558;-4.644;2023-02-16T07:53:56;101289.63;;;10.31;66.50
64853;BME280;56050;55.558;-4.644;2023-02-16T07:56:27;101302.38;;;10.34;66.46
64853;BME280;56050;55.558;-4.644;2023-02-16T07:58:54;101297.38;;;10.36;66.36
64853;BME280;56050;55.558;-4.644;2023-02-16T08:01:20;101313.19;;;10.38;66.37
64853;BME280;56050;55.558;-4.644;2023-02-16T08:03:46;101319.31;;;10.38;66.61
64853;BME280;56050;55.558;-4.644;2023-02-16T08:06:12;101316.63;;;10.38;66.44
64853;BME280;56050;55.558;-4.644;2023-02-16T08:08:39;101317.78;;;10.37;66.47
64853;BME280;56050;55.558;-4.644;2023-02-16T08:11:09;101308.13;;;10.33;66.57
64853;BME280;56050;55.558;-4.644;2023-02-16T08:13:34;101311.19;;;10.31;66.55
64853;BME280;56050;55.558;-4.644;2023-02-16T08:16:00;101318.88;;;10.29;66.60
64853;BME280;56050;55.558;-4.644;2023-02-16T08:18:25;101325.38;;;10.28;66.75
64853;BME280;56050;55.558;-4.644;2023-02-16T08:20:51;101321.16;;;10.27;66.69
64853;BME280;56050;55.558;-4.644;2023-02-16T08:23:16;101333.41;;;10.25;66.85
64853;BME280;56050;55.558;-4.644;2023-02-16T08:25:41;101325.72;;;10.23;66.96
64853;BME280;56050;55.558;-4.644;2023-02-16T08:28:08;101329.53;;;10.22;67.08
64853;BME280;56050;55.558;-4.644;2023-02-16T08:30:33;101327.59;;;10.19;67.19
64853;BME280;56050;55.558;-4.644;2023-02-16T08:33:00;101328.75;;;10.18;67.13
64853;BME280;56050;55.558;-4.644;2023-02-16T08:35:29;101332.22;;;10.19;67.35
64853;BME280;56050;55.558;-4.644;2023-02-16T08:37:57;101328.75;;;10.18;67.50
64853;BME280;56050;55.558;-4.644;2023-02-16T08:40:23;101329.53;;;10.19;67.58
64853;BME280;56050;55.558;-4.644;2023-02-16T08:42:49;101336.81;;;10.18;67.52
64853;BME280;56050;55.558;-4.644;2023-02-16T08:45:15;101329.53;;;10.19;67.58
64853;BME280;56050;55.558;-4.644;2023-02-16T08:47:40;101329.53;;;10.19;67.60
64853;BME280;56050;55.558;-4.644;2023-02-16T08:50:06;101322.97;;;10.20;67.48
64853;BME280;56050;55.558;-4.644;2023-02-16T08:52:32;101322.97;;;10.20;67.81
64853;BME280;56050;55.558;-4.644;2023-02-16T08:54:58;101314.13;;;10.19;67.99
64853;BME280;56050;55.558;-4.644;2023-02-16T08:57:23;101310.69;;;10.19;68.19
64853;BME280;56050;55.558;-4.644;2023-02-16T08:59:49;101311.03;;;10.17;68.13
64853;BME280;56050;55.558;-4.644;2023-02-16T09:02:34;101299.47;;;10.17;68.26
64853;BME280;56050;55.558;-4.644;2023-02-16T09:05:00;101300.66;;;10.16;68.30
64853;BME280;56050;55.558;-4.644;2023-02-16T09:07:25;101308.34;;;10.17;68.29
64853;BME280;56050;55.558;-4.644;2023-02-16T09:09:51;101307.97;;;10.19;68.31
64853;BME280;56050;55.558;-4.644;2023-02-16T09:12:17;101296.09;;;10.23;68.40
64853;BME280;56050;55.558;-4.644;2023-02-16T09:14:42;101291.53;;;10.27;68.40
64853;BME280;56050;55.558;-4.644;2023-02-16T09:17:07;101293.44;;;10.27;68.27
64853;BME280;56050;55.558;-4.644;2023-02-16T09:19:33;101306.94;;;10.30;68.23
64853;BME280;56050;55.558;-4.644;2023-02-16T09:21:59;101311.97;;;10.32;68.35
64853;BME280;56050;55.558;-4.644;2023-02-16T09:24:25;101310.06;;;10.36;68.20
64853;BME280;56050;55.558;-4.644;2023-02-16T09:26:51;101326.66;;;10.41;68.16
64853;BME280;56050;55.558;-4.644;2023-02-16T09:29:16;101327.47;;;10.45;68.25
64853;BME280;56050;55.558;-4.644;2023-02-16T09:31:42;101323.66;;;10.50;67.96
64853;BME280;56050;55.558;-4.644;2023-02-16T09:36:37;101330.34;;;10.63;67.88
64853;BME280;56050;55.558;-4.644;2023-02-16T09:39:03;101331.53;;;10.66;67.86
64853;BME280;56050;55.558;-4.644;2023-02-16T09:45:01;101337.00;;;10.76;67.76
64853;BME280;56050;55.558;-4.644;2023-02-16T09:47:29;101350.94;;;10.82;67.71
64853;BME280;56050;55.558;-4.644;2023-02-16T09:50:02;101347.09;;;10.86;67.76
64853;BME280;56050;55.558;-4.644;2023-02-16T10:03:00;101349.69;;;11.19;67.17
64853;BME280;56050;55.558;-4.644;2023-02-16T10:05:42;101362.03;;;11.24;67.01
64853;BME280;56050;55.558;-4.644;2023-02-16T10:10:59;101371.31;;;11.30;67.19
64853;BME280;56050;55.558;-4.644;2023-02-16T10:13:40;101375.19;;;11.33;67.21
64853;BME280;56050;55.558;-4.644;2023-02-16T10:16:14;101372.91;;;11.35;67.03
64853;BME280;56050;55.558;-4.644;2023-02-16T10:18:47;101360.59;;;11.37;67.15
64853;BME280;56050;55.558;-4.644;2023-02-16T10:21:25;101357.47;;;11.35;67.03
64853;BME280;56050;55.558;-4.644;2023-02-16T10:23:59;101340.13;;;11.33;67.30
64853;BME280;56050;55.558;-4.644;2023-02-16T10:26:37;101336.25;;;11.30;67.29
64853;BME280;56050;55.558;-4.644;2023-02-16T10:29:15;101348.22;;;11.29;67.55
64853;BME280;56050;55.558;-4.644;2023-02-16T10:31:52;101357.44;;;11.28;67.39
64853;BME280;56050;55.558;-4.644;2023-02-16T10:40:16;101357.06;;;11.30;67.56
64853;BME280;56050;55.558;-4.644;2023-02-16T10:47:49;101345.88;;;11.28;67.49
64853;BME280;56050;55.558;-4.644;2023-02-16T10:52:47;101335.91;;;11.32;67.60
64853;BME280;56050;55.558;-4.644;2023-02-16T10:55:13;101329.34;;;11.33;67.57
64853;BME280;56050;55.558;-4.644;2023-02-16T10:57:39;101332.06;;;11.36;67.42
64853;BME280;56050;55.558;-4.644;2023-02-16T11:00:10;101349.41;;;11.39;67.56
64853;BME280;56050;55.558;-4.644;2023-02-16T11:02:44;101351.34;;;11.38;67.54
64853;BME280;56050;55.558;-4.644;2023-02-16T11:05:32;101347.50;;;11.39;67.60
64853;BME280;56050;55.558;-4.644;2023-02-16T11:07:59;101348.66;;;11.42;67.61
64853;BME280;56050;55.558;-4.644;2023-02-16T11:10:46;101332.88;;;11.44;67.56
64853;BME280;56050;55.558;-4.644;2023-02-16T11:13:28;101336.75;;;11.46;67.55
64853;BME280;56050;55.558;-4.644;2023-02-16T11:15:58;101353.34;;;11.48;67.67
64853;BME280;56050;55.558;-4.644;2023-02-16T11:18:32;101350.66;;;11.48;67.69
64853;BME280;56050;55.558;-4.644;2023-02-16T11:20:59;101336.41;;;11.51;67.71
64853;BME280;56050;55.558;-4.644;2023-02-16T11:23:31;101328.69;;;11.53;67.89
64853;BME280;56050;55.558;-4.644;2023-02-16T11:26:30;101330.66;;;11.56;67.93
64853;BME280;56050;55.558;-4.644;2023-02-16T11:28:49;101319.47;;;11.58;67.75
64853;BME280;56050;55.558;-4.644;2023-02-16T11:31:35;101320.25;;;11.58;67.86
64853;BME280;56050;55.558;-4.644;2023-02-16T11:36:36;101313.31;;;11.61;67.91
64853;BME280;56050;55.558;-4.644;2023-02-16T11:41:43;101337.22;;;11.59;68.13
64853;BME280;56050;55.558;-4.644;2023-02-16T11:44:36;101346.09;;;11.59;68.31
64853;BME280;56050;55.558;-4.644;2023-02-16T11:47:06;101344.91;;;11.60;68.24
64853;BME280;56050;55.558;-4.644;2023-02-16T11:49:39;101357.66;;;11.63;68.18
64853;BME280;56050;55.558;-4.644;2023-02-16T11:54:50;101354.59;;;11.68;68.38
64853;BME280;56050;55.558;-4.644;2023-02-16T11:57:25;101347.34;;;11.72;68.18
64853;BME280;56050;55.558;-4.644;2023-02-16T11:59:52;101357.78;;;11.77;68.21
64853;BME280;56050;55.558;-4.644;2023-02-16T12:05:24;101363.19;;;11.81;68.37
64853;BME280;56050;55.558;-4.644;2023-02-16T12:16:41;101368.63;;;11.85;68.64
64853;BME280;56050;55.558;-4.644;2023-02-16T12:21:48;101364.75;;;11.86;68.58
64853;BME280;56050;55.558;-4.644;2023-02-16T12:24:44;101368.19;;;11.83;68.53
64853;BME280;56050;55.558;-4.644;2023-02-16T12:39:02;101336.19;;;11.81;68.53
64853;BME280;56050;55.558;-4.644;2023-02-16T12:47:23;101317.66;;;11.72;68.71
64853;BME280;56050;55.558;-4.644;2023-02-16T12:50:02;101299.91;;;11.71;68.75
64853;BME280;56050;55.558;-4.644;2023-02-16T12:52:54;101289.09;;;11.71;68.68
64853;BME280;56050;55.558;-4.644;2023-02-16T12:55:54;101281.41;;;11.73;68.67
64853;BME280;56050;55.558;-4.644;2023-02-16T13:00:59;101286.78;;;11.70;68.69
64853;BME280;56050;55.558;-4.644;2023-02-16T13:03:37;101302.22;;;11.69;68.77
64853;BME280;56050;55.558;-4.644;2023-02-16T13:11:37;101314.47;;;11.56;68.90
64853;BME280;56050;55.558;-4.644;2023-02-16T13:14:13;101303.63;;;11.53;68.96
64853;BME280;56050;55.558;-4.644;2023-02-16T13:16:50;101310.94;;;11.49;68.93
64853;BME280;56050;55.558;-4.644;2023-02-16T13:19:18;101307.44;;;11.45;69.03
64853;BME280;56050;55.558;-4.644;2023-02-16T13:24:44;101304.34;;;11.39;69.21
64853;BME280;56050;55.558;-4.644;2023-02-16T13:38:08;101289.56;;;11.19;69.23
64853;BME280;56050;55.558;-4.644;2023-02-16T13:40:53;101295.38;;;11.21;69.26
64853;BME280;56050;55.558;-4.644;2023-02-16T13:43:32;101288.44;;;11.20;69.14
64853;BME280;56050;55.558;-4.644;2023-02-16T13:46:02;101283.81;;;11.20;69.25
64853;BME280;56050;55.558;-4.644;2023-02-16T13:51:12;101276.13;;;11.23;69.09
64853;BME280;56050;55.558;-4.644;2023-02-16T13:53:41;101277.25;;;11.21;68.94
64853;BME280;56050;55.558;-4.644;2023-02-16T13:56:36;101272.59;;;11.18;69.13
64853;BME280;56050;55.558;-4.644;2023-02-16T14:01:51;101261.81;;;11.15;68.96
64853;BME280;56050;55.558;-4.644;2023-02-16T14:09:45;101255.28;;;11.19;69.03
64853;BME280;56050;55.558;-4.644;2023-02-16T14:12:28;101246.06;;;11.20;68.91
64853;BME280;56050;55.558;-4.644;2023-02-16T14:15:14;101258.00;;;11.19;68.73
64853;BME280;56050;55.558;-4.644;2023-02-16T14:17:42;101249.13;;;11.19;68.90
64853;BME280;56050;55.558;-4.644;2023-02-16T14:35:34;101238.66;;;11.07;68.77
64853;BME280;56050;55.558;-4.644;2023-02-16T14:38:04;101230.16;;;11.05;68.91
64853;BME280;56050;55.558;-4.644;2023-02-16T14:43:10;101213.97;;;11.01;69.05
64853;BME280;56050;55.558;-4.644;2023-02-16T14:48:13;101208.59;;;11.05;68.96
64853;BME280;56050;55.558;-4.644;2023-02-16T14:56:37;101204.34;;;11.00;68.89
64853;BME280;56050;55.558;-4.644;2023-02-16T15:01:39;101202.41;;;11.01;68.94
64853;BME280;56050;55.558;-4.644;2023-02-16T15:04:05;101209.72;;;11.00;68.96
64853;BME280;56050;55.558;-4.644;2023-02-16T15:06:40;101198.91;;;10.97;69.05
64853;BME280;56050;55.558;-4.644;2023-02-16T15:09:17;101197.41;;;10.96;68.97
64853;BME280;56050;55.558;-4.644;2023-02-16T15:12:05;101181.22;;;10.96;69.10
64853;BME280;56050;55.558;-4.644;2023-02-16T15:14:53;101177.34;;;10.97;68.88
64853;BME280;56050;55.558;-4.644;2023-02-16T15:17:33;101170.78;;;10.94;69.04
64853;BME280;56050;55.558;-4.644;2023-02-16T15:20:09;101171.19;;;10.93;69.01
64853;BME280;56050;55.558;-4.644;2023-02-16T15:22:35;101170.38;;;10.89;68.98
64853;BME280;56050;55.558;-4.644;2023-02-16T15:25:29;101161.13;;;10.86;69.00
64853;BME280;56050;55.558;-4.644;2023-02-16T15:30:38;101158.44;;;10.86;69.02
64853;BME280;56050;55.558;-4.644;2023-02-16T15:33:11;101160.75;;;10.84;69.22
64853;BME280;56050;55.558;-4.644;2023-02-16T15:35:41;101153.78;;;10.83;69.17
64853;BME280;56050;55.558;-4.644;2023-02-16T15:38:19;101169.97;;;10.80;69.36
64853;BME280;56050;55.558;-4.644;2023-02-16T15:40:45;101167.63;;;10.78;69.42
64853;BME280;56050;55.558;-4.644;2023-02-16T15:45:50;101164.91;;;10.75;69.42